Airport Name : Ingolstadt Manching

Other Name : Ingolstadt

ICAO : ETSI

IATA : IGS

FAA :

Latitude : 48.715667

Longitude : 11.534

Country : Germany

Local Date and Time : 28 Feb 2024 23:52

 

TAF (Terminal Aerodrome Forecast)

TAF ETSI 281408Z 2815/2824 03002KT 9999 NSW FEW012 BKN020

 

METAR (METeorological Aerodrome Report)

ETSI 282220Z AUTO VRB01KT //// // ////// 05/02 Q1021 ///

ETSI 282120Z AUTO 09001KT //// // ////// 05/02 Q1021 ///

ETSI 282020Z AUTO 36002KT //// // ////// 05/02 Q1021 ///

ETSI 281920Z AUTO 04003KT //// // ////// 05/02 Q1021 ///